sensor_id;sensor_type;location;lat;lon;timestamp;temperature;humidity
10538;DHT22;5317;49.048;8.468;2023-03-05T00:02:15;9.30;55.30
10538;DHT22;5317;49.048;8.468;2023-03-05T00:04:42;9.40;55.10
10538;DHT22;5317;49.048;8.468;2023-03-05T00:07:11;9.50;55.10
10538;DHT22;5317;49.048;8.468;2023-03-05T00:09:41;9.40;55.10
10538;DHT22;5317;49.048;8.468;2023-03-05T00:12:08;9.30;55.00
10538;DHT22;5317;49.048;8.468;2023-03-05T00:14:37;9.30;55.30
10538;DHT22;5317;49.048;8.468;2023-03-05T00:17:04;9.20;55.20
10538;DHT22;5317;49.048;8.468;2023-03-05T00:19:31;9.30;55.20
10538;DHT22;5317;49.048;8.468;2023-03-05T00:21:58;9.30;55.10
10538;DHT22;5317;49.048;8.468;2023-03-05T00:24:29;9.50;55.10
10538;DHT22;5317;49.048;8.468;2023-03-05T00:26:59;9.40;54.80
10538;DHT22;5317;49.048;8.468;2023-03-05T00:29:29;9.30;54.70
10538;DHT22;5317;49.048;8.468;2023-03-05T00:31:57;9.30;54.90
10538;DHT22;5317;49.048;8.468;2023-03-05T00:34:27;9.30;54.80
10538;DHT22;5317;49.048;8.468;2023-03-05T00:36:54;9.30;54.70
10538;DHT22;5317;49.048;8.468;2023-03-05T00:39:21;9.30;54.70
10538;DHT22;5317;49.048;8.468;2023-03-05T00:41:51;9.30;54.60
10538;DHT22;5317;49.048;8.468;2023-03-05T00:44:21;9.20;54.50
10538;DHT22;5317;49.048;8.468;2023-03-05T00:46:51;9.20;54.80
10538;DHT22;5317;49.048;8.468;2023-03-05T00:49:19;9.10;54.60
10538;DHT22;5317;49.048;8.468;2023-03-05T00:51:50;9.10;54.70
10538;DHT22;5317;49.048;8.468;2023-03-05T00:54:17;9.10;54.70
10538;DHT22;5317;49.048;8.468;2023-03-05T00:56:44;9.10;54.60
10538;DHT22;5317;49.048;8.468;2023-03-05T00:59:13;9.10;54.50
10538;DHT22;5317;49.048;8.468;2023-03-05T01:01:40;9.00;54.50
10538;DHT22;5317;49.048;8.468;2023-03-05T01:04:08;9.00;54.50
10538;DHT22;5317;49.048;8.468;2023-03-05T01:06:35;9.00;54.70
10538;DHT22;5317;49.048;8.468;2023-03-05T01:09:07;9.00;54.60
10538;DHT22;5317;49.048;8.468;2023-03-05T01:11:37;9.10;54.50
10538;DHT22;5317;49.048;8.468;2023-03-05T01:14:06;9.10;54.70
10538;DHT22;5317;49.048;8.468;2023-03-05T01:16:35;9.00;54.70
10538;DHT22;5317;49.048;8.468;2023-03-05T01:19:02;9.00;54.70
10538;DHT22;5317;49.048;8.468;2023-03-05T01:21:29;9.00;54.70
10538;DHT22;5317;49.048;8.468;2023-03-05T01:23:56;9.00;54.60
10538;DHT22;5317;49.048;8.468;2023-03-05T01:26:23;9.00;54.70
10538;DHT22;5317;49.048;8.468;2023-03-05T01:28:50;9.10;54.70
10538;DHT22;5317;49.048;8.468;2023-03-05T01:31:17;9.10;54.50
10538;DHT22;5317;49.048;8.468;2023-03-05T01:33:45;9.10;54.50
10538;DHT22;5317;49.048;8.468;2023-03-05T01:36:14;9.10;54.30
10538;DHT22;5317;49.048;8.468;2023-03-05T01:38:41;9.10;54.60
10538;DHT22;5317;49.048;8.468;2023-03-05T01:41:09;9.10;54.50
10538;DHT22;5317;49.048;8.468;2023-03-05T01:43:36;9.10;54.80
10538;DHT22;5317;49.048;8.468;2023-03-05T01:46:28;9.10;54.50
10538;DHT22;5317;49.048;8.468;2023-03-05T01:49:01;9.20;54.60
10538;DHT22;5317;49.048;8.468;2023-03-05T01:51:34;9.20;54.40
10538;DHT22;5317;49.048;8.468;2023-03-05T01:54:05;9.20;54.20
10538;DHT22;5317;49.048;8.468;2023-03-05T01:56:34;9.20;54.30
10538;DHT22;5317;49.048;8.468;2023-03-05T01:59:04;9.20;54.20
10538;DHT22;5317;49.048;8.468;2023-03-05T02:01:41;9.20;54.20
10538;DHT22;5317;49.048;8.468;2023-03-05T02:04:13;9.20;54.20
10538;DHT22;5317;49.048;8.468;2023-03-05T02:06:42;9.10;54.20
10538;DHT22;5317;49.048;8.468;2023-03-05T02:09:09;9.10;54.40
10538;DHT22;5317;49.048;8.468;2023-03-05T02:11:36;9.10;54.50
10538;DHT22;5317;49.048;8.468;2023-03-05T02:14:04;9.10;54.40
10538;DHT22;5317;49.048;8.468;2023-03-05T02:16:34;9.00;54.50
10538;DHT22;5317;49.048;8.468;2023-03-05T02:19:04;9.00;54.60
10538;DHT22;5317;49.048;8.468;2023-03-05T02:21:38;8.90;54.70
10538;DHT22;5317;49.048;8.468;2023-03-05T02:24:05;9.00;55.00
10538;DHT22;5317;49.048;8.468;2023-03-05T02:26:32;8.90;54.90
10538;DHT22;5317;49.048;8.468;2023-03-05T02:29:02;8.90;55.00
10538;DHT22;5317;49.048;8.468;2023-03-05T02:31:31;8.90;55.00
10538;DHT22;5317;49.048;8.468;2023-03-05T02:33:58;8.80;55.10
10538;DHT22;5317;49.048;8.468;2023-03-05T02:36:25;8.70;55.30
10538;DHT22;5317;49.048;8.468;2023-03-05T02:38:54;8.60;55.20
10538;DHT22;5317;49.048;8.468;2023-03-05T02:41:22;8.70;55.60
10538;DHT22;5317;49.048;8.468;2023-03-05T02:43:49;8.70;55.50
10538;DHT22;5317;49.048;8.468;2023-03-05T02:46:16;8.70;55.40
10538;DHT22;5317;49.048;8.468;2023-03-05T02:48:44;8.70;55.30
10538;DHT22;5317;49.048;8.468;2023-03-05T02:51:11;8.80;55.30
10538;DHT22;5317;49.048;8.468;2023-03-05T02:53:38;8.80;55.40
10538;DHT22;5317;49.048;8.468;2023-03-05T02:56:07;8.90;55.30
10538;DHT22;5317;49.048;8.468;2023-03-05T02:58:34;8.90;55.10
10538;DHT22;5317;49.048;8.468;2023-03-05T03:01:01;9.00;55.00
10538;DHT22;5317;49.048;8.468;2023-03-05T03:03:31;9.00;55.00
10538;DHT22;5317;49.048;8.468;2023-03-05T03:05:58;8.90;55.00
10538;DHT22;5317;49.048;8.468;2023-03-05T03:08:25;8.90;55.00
10538;DHT22;5317;49.048;8.468;2023-03-05T03:11:02;8.90;55.10
10538;DHT22;5317;49.048;8.468;2023-03-05T03:13:35;8.70;55.40
